sensor_id;sensor_type;location;lat;lon;timestamp;P1;durP1;ratioP1;P2;durP2;ratioP2
54945;SDS011;40846;44.788;20.486;2023-03-31T00:00:43;32.97;;;15.90;;
54945;SDS011;40846;44.788;20.486;2023-03-31T00:03:09;37.60;;;16.42;;
54945;SDS011;40846;44.788;20.486;2023-03-31T00:05:35;28.33;;;13.93;;
54945;SDS011;40846;44.788;20.486;2023-03-31T00:08:02;31.05;;;13.45;;
54945;SDS011;40846;44.788;20.486;2023-03-31T00:10:31;24.58;;;12.57;;
54945;SDS011;40846;44.788;20.486;2023-03-31T00:12:58;29.05;;;14.52;;
54945;SDS011;40846;44.788;20.486;2023-03-31T00:15:25;28.77;;;13.23;;
54945;SDS011;40846;44.788;20.486;2023-03-31T00:17:51;35.97;;;14.43;;
54945;SDS011;40846;44.788;20.486;2023-03-31T00:20:17;29.60;;;12.55;;
54945;SDS011;40846;44.788;20.486;2023-03-31T00:22:44;34.55;;;13.32;;
54945;SDS011;40846;44.788;20.486;2023-03-31T00:25:13;29.63;;;12.38;;
54945;SDS011;40846;44.788;20.486;2023-03-31T00:27:43;25.75;;;12.93;;
54945;SDS011;40846;44.788;20.486;2023-03-31T00:30:10;30.73;;;11.98;;
54945;SDS011;40846;44.788;20.486;2023-03-31T00:32:36;22.92;;;12.50;;
54945;SDS011;40846;44.788;20.486;2023-03-31T00:35:02;24.25;;;13.48;;
54945;SDS011;40846;44.788;20.486;2023-03-31T00:37:29;26.08;;;13.52;;
54945;SDS011;40846;44.788;20.486;2023-03-31T00:39:55;24.15;;;11.68;;
54945;SDS011;40846;44.788;20.486;2023-03-31T00:42:21;22.15;;;12.07;;
54945;SDS011;40846;44.788;20.486;2023-03-31T00:47:33;30.23;;;11.98;;
54945;SDS011;40846;44.788;20.486;2023-03-31T00:49:59;28.95;;;12.68;;
54945;SDS011;40846;44.788;20.486;2023-03-31T00:52:34;24.58;;;13.02;;
54945;SDS011;40846;44.788;20.486;2023-03-31T00:55:06;26.95;;;11.75;;
54945;SDS011;40846;44.788;20.486;2023-03-31T00:57:33;18.58;;;10.50;;
54945;SDS011;40846;44.788;20.486;2023-03-31T01:00:04;24.30;;;10.95;;
54945;SDS011;40846;44.788;20.486;2023-03-31T01:02:44;26.48;;;8.88;;
54945;SDS011;40846;44.788;20.486;2023-03-31T01:05:19;21.42;;;8.00;;
54945;SDS011;40846;44.788;20.486;2023-03-31T01:07:47;21.52;;;7.68;;
54945;SDS011;40846;44.788;20.486;2023-03-31T01:10:13;15.85;;;6.75;;
54945;SDS011;40846;44.788;20.486;2023-03-31T01:12:40;30.23;;;7.20;;
54945;SDS011;40846;44.788;20.486;2023-03-31T01:15:07;19.45;;;6.40;;
54945;SDS011;40846;44.788;20.486;2023-03-31T01:17:33;14.35;;;5.80;;
54945;SDS011;40846;44.788;20.486;2023-03-31T01:38:14;7.65;;;3.47;;
54945;SDS011;40846;44.788;20.486;2023-03-31T01:40:59;7.60;;;3.25;;
54945;SDS011;40846;44.788;20.486;2023-03-31T01:51:39;13.77;;;2.78;;
54945;SDS011;40846;44.788;20.486;2023-03-31T01:54:22;13.25;;;2.92;;
54945;SDS011;40846;44.788;20.486;2023-03-31T01:56:53;11.95;;;3.08;;
54945;SDS011;40846;44.788;20.486;2023-03-31T01:59:22;6.88;;;2.40;;
54945;SDS011;40846;44.788;20.486;2023-03-31T02:02:01;11.32;;;2.33;;
54945;SDS011;40846;44.788;20.486;2023-03-31T02:06:58;7.60;;;2.28;;
54945;SDS011;40846;44.788;20.486;2023-03-31T02:09:27;7.13;;;2.35;;
54945;SDS011;40846;44.788;20.486;2023-03-31T02:11:54;4.68;;;1.92;;
54945;SDS011;40846;44.788;20.486;2023-03-31T02:14:23;7.90;;;1.90;;
54945;SDS011;40846;44.788;20.486;2023-03-31T02:16:52;6.97;;;2.10;;
54945;SDS011;40846;44.788;20.486;2023-03-31T02:19:22;9.43;;;1.97;;
54945;SDS011;40846;44.788;20.486;2023-03-31T02:21:50;8.48;;;2.10;;
54945;SDS011;40846;44.788;20.486;2023-03-31T02:24:16;7.10;;;1.92;;
54945;SDS011;40846;44.788;20.486;2023-03-31T02:26:48;8.95;;;1.77;;
54945;SDS011;40846;44.788;20.486;2023-03-31T02:29:15;7.55;;;2.03;;
54945;SDS011;40846;44.788;20.486;2023-03-31T02:34:25;7.00;;;2.33;;
54945;SDS011;40846;44.788;20.486;2023-03-31T02:36:51;9.57;;;2.05;;
54945;SDS011;40846;44.788;20.486;2023-03-31T02:39:19;12.63;;;1.98;;
54945;SDS011;40846;44.788;20.486;2023-03-31T02:41:45;8.25;;;1.88;;
54945;SDS011;40846;44.788;20.486;2023-03-31T02:44:11;7.22;;;1.70;;
54945;SDS011;40846;44.788;20.486;2023-03-31T02:46:38;6.20;;;2.33;;
54945;SDS011;40846;44.788;20.486;2023-03-31T02:49:05;9.57;;;2.17;;
54945;SDS011;40846;44.788;20.486;2023-03-31T02:59:28;7.53;;;2.30;;
54945;SDS011;40846;44.788;20.486;2023-03-31T03:19:20;14.93;;;2.67;;
54945;SDS011;40846;44.788;20.486;2023-03-31T03:21:47;9.77;;;1.80;;
54945;SDS011;40846;44.788;20.486;2023-03-31T03:24:16;4.43;;;1.77;;
54945;SDS011;40846;44.788;20.486;2023-03-31T03:26:43;11.88;;;2.47;;
54945;SDS011;40846;44.788;20.486;2023-03-31T03:29:10;15.02;;;2.75;;
54945;SDS011;40846;44.788;20.486;2023-03-31T03:31:41;9.45;;;2.00;;
54945;SDS011;40846;44.788;20.486;2023-03-31T03:34:07;9.30;;;2.10;;
54945;SDS011;40846;44.788;20.486;2023-03-31T03:36:34;8.85;;;1.75;;
54945;SDS011;40846;44.788;20.486;2023-03-31T03:39:01;4.75;;;1.85;;
54945;SDS011;40846;44.788;20.486;2023-03-31T03:41:28;7.65;;;2.35;;
54945;SDS011;40846;44.788;20.486;2023-03-31T03:43:54;8.35;;;2.60;;
54945;SDS011;40846;44.788;20.486;2023-03-31T03:46:20;5.78;;;1.95;;
54945;SDS011;40846;44.788;20.486;2023-03-31T03:48:46;6.65;;;2.08;;
54945;SDS011;40846;44.788;20.486;2023-03-31T03:51:12;8.38;;;2.17;;
54945;SDS011;40846;44.788;20.486;2023-03-31T03:53:38;7.63;;;2.35;;
54945;SDS011;40846;44.788;20.486;2023-03-31T03:56:04;8.32;;;2.10;;
54945;SDS011;40846;44.788;20.486;2023-03-31T03:58:30;7.40;;;2.42;;
54945;SDS011;40846;44.788;20.486;2023-03-31T04:00:56;5.30;;;1.75;;
54945;SDS011;40846;44.788;20.486;2023-03-31T04:03:22;7.40;;;1.77;;
54945;SDS011;40846;44.788;20.486;2023-03-31T04:05:49;7.47;;;2.22;;
54945;SDS011;40846;44.788;20.486;2023-03-31T04:08:15;6.10;;;1.88;;
54945;SDS011;40846;44.788;20.486;2023-03-31T04:10:45;6.90;;;1.92;;
54945;SDS011;40846;44.788;20.486;2023-03-31T04:13:13;5.97;;;2.30;;
54945;SDS011;40846;44.788;20.486;2023-03-31T04:15:39;11.80;;;2.05;;
54945;SDS011;40846;44.788;20.486;2023-03-31T04:18:05;6.97;;;2.63;;
54945;SDS011;40846;44.788;20.486;2023-03-31T04:20:35;8.80;;;2.85;;
54945;SDS011;40846;44.788;20.486;2023-03-31T04:23:03;10.45;;;2.40;;
54945;SDS011;40846;44.788;20.486;2023-03-31T04:25:33;5.93;;;2.00;;
54945;SDS011;40846;44.788;20.486;2023-03-31T04:28:03;6.60;;;2.72;;
54945;SDS011;40846;44.788;20.486;2023-03-31T04:30:31;9.13;;;2.03;;
54945;SDS011;40846;44.788;20.486;2023-03-31T04:32:58;6.28;;;2.00;;
54945;SDS011;40846;44.788;20.486;2023-03-31T04:35:25;7.03;;;2.38;;
54945;SDS011;40846;44.788;20.486;2023-03-31T04:37:52;10.32;;;2.25;;
54945;SDS011;40846;44.788;20.486;2023-03-31T04:40:24;9.27;;;2.30;;
54945;SDS011;40846;44.788;20.486;2023-03-31T04:42:50;6.90;;;2.50;;
54945;SDS011;40846;44.788;20.486;2023-03-31T04:45:17;11.32;;;2.28;;
54945;SDS011;40846;44.788;20.486;2023-03-31T04:47:43;6.85;;;2.15;;
54945;SDS011;40846;44.788;20.486;2023-03-31T04:50:09;5.85;;;2.08;;
54945;SDS011;40846;44.788;20.486;2023-03-31T04:52:36;4.80;;;2.05;;
54945;SDS011;40846;44.788;20.486;2023-03-31T04:55:03;11.15;;;2.25;;
54945;SDS011;40846;44.788;20.486;2023-03-31T04:57:29;7.57;;;2.33;;
54945;SDS011;40846;44.788;20.486;2023-03-31T04:59:55;4.40;;;2.17;;
54945;SDS011;40846;44.788;20.486;2023-03-31T05:02:21;7.30;;;2.00;;
54945;SDS011;40846;44.788;20.486;2023-03-31T05:04:50;5.35;;;2.58;;
54945;SDS011;40846;44.788;20.486;2023-03-31T05:07:17;5.78;;;1.92;;
54945;SDS011;40846;44.788;20.486;2023-03-31T05:09:43;6.93;;;2.38;;
54945;SDS011;40846;44.788;20.486;2023-03-31T05:12:10;9.82;;;2.95;;
54945;SDS011;40846;44.788;20.486;2023-03-31T05:14:37;9.68;;;2.40;;
54945;SDS011;40846;44.788;20.486;2023-03-31T05:17:03;6.88;;;2.10;;
54945;SDS011;40846;44.788;20.486;2023-03-31T05:19:29;12.60;;;3.10;;
54945;SDS011;40846;44.788;20.486;2023-03-31T05:21:55;6.90;;;2.38;;
54945;SDS011;40846;44.788;20.486;2023-03-31T05:24:21;12.35;;;2.33;;
54945;SDS011;40846;44.788;20.486;2023-03-31T05:26:47;4.55;;;1.95;;
54945;SDS011;40846;44.788;20.486;2023-03-31T05:29:19;9.35;;;2.60;;
54945;SDS011;40846;44.788;20.486;2023-03-31T05:31:45;5.38;;;2.53;;
54945;SDS011;40846;44.788;20.486;2023-03-31T05:34:12;10.25;;;2.30;;
54945;SDS011;40846;44.788;20.486;2023-03-31T05:36:38;10.02;;;2.20;;
54945;SDS011;40846;44.788;20.486;2023-03-31T05:39:05;7.28;;;2.45;;
54945;SDS011;40846;44.788;20.486;2023-03-31T05:41:32;9.57;;;2.13;;
54945;SDS011;40846;44.788;20.486;2023-03-31T05:43:58;9.40;;;2.78;;
54945;SDS011;40846;44.788;20.486;2023-03-31T05:46:26;7.15;;;2.42;;
54945;SDS011;40846;44.788;20.486;2023-03-31T05:48:52;9.38;;;2.30;;
54945;SDS011;40846;44.788;20.486;2023-03-31T05:51:18;8.43;;;2.35;;
54945;SDS011;40846;44.788;20.486;2023-03-31T05:53:44;14.15;;;2.53;;
54945;SDS011;40846;44.788;20.486;2023-03-31T05:56:10;8.38;;;2.28;;
54945;SDS011;40846;44.788;20.486;2023-03-31T05:58:37;14.60;;;3.17;;
54945;SDS011;40846;44.788;20.486;2023-03-31T06:01:07;7.03;;;2.72;;
54945;SDS011;40846;44.788;20.486;2023-03-31T06:03:34;10.23;;;3.78;;
54945;SDS011;40846;44.788;20.486;2023-03-31T06:06:01;11.45;;;3.25;;
54945;SDS011;40846;44.788;20.486;2023-03-31T06:08:27;6.60;;;2.67;;
54945;SDS011;40846;44.788;20.486;2023-03-31T06:10:54;15.60;;;3.20;;
54945;SDS011;40846;44.788;20.486;2023-03-31T06:13:20;6.25;;;2.35;;
54945;SDS011;40846;44.788;20.486;2023-03-31T06:15:52;9.70;;;2.33;;
54945;SDS011;40846;44.788;20.486;2023-03-31T06:18:18;6.15;;;2.10;;
54945;SDS011;40846;44.788;20.486;2023-03-31T06:20:45;6.47;;;1.65;;
54945;SDS011;40846;44.788;20.486;2023-03-31T06:23:11;10.00;;;2.58;;
54945;SDS011;40846;44.788;20.486;2023-03-31T06:25:37;8.90;;;2.28;;
54945;SDS011;40846;44.788;20.486;2023-03-31T06:28:03;8.98;;;3.00;;
54945;SDS011;40846;44.788;20.486;2023-03-31T06:30:33;7.35;;;2.38;;
54945;SDS011;40846;44.788;20.486;2023-03-31T06:32:59;6.50;;;2.25;;
54945;SDS011;40846;44.788;20.486;2023-03-31T06:35:26;5.82;;;2.17;;
54945;SDS011;40846;44.788;20.486;2023-03-31T06:37:52;14.40;;;2.50;;
54945;SDS011;40846;44.788;20.486;2023-03-31T06:40:18;15.23;;;3.58;;
54945;SDS011;40846;44.788;20.486;2023-03-31T06:42:44;8.52;;;2.72;;
54945;SDS011;40846;44.788;20.486;2023-03-31T06:45:10;6.45;;;3.22;;
54945;SDS011;40846;44.788;20.486;2023-03-31T06:47:36;6.53;;;2.17;;
54945;SDS011;40846;44.788;20.486;2023-03-31T06:50:05;8.68;;;2.45;;
54945;SDS011;40846;44.788;20.486;2023-03-31T06:52:31;14.95;;;2.50;;
54945;SDS011;40846;44.788;20.486;2023-03-31T06:54:57;8.20;;;2.65;;
54945;SDS011;40846;44.788;20.486;2023-03-31T06:57:24;14.50;;;2.70;;
54945;SDS011;40846;44.788;20.486;2023-03-31T06:59:50;14.75;;;3.60;;
54945;SDS011;40846;44.788;20.486;2023-03-31T07:02:16;13.63;;;3.35;;
54945;SDS011;40846;44.788;20.486;2023-03-31T07:04:42;18.17;;;4.28;;
54945;SDS011;40846;44.788;20.486;2023-03-31T07:07:08;10.38;;;4.85;;
54945;SDS011;40846;44.788;20.486;2023-03-31T07:09:35;10.10;;;3.15;;
54945;SDS011;40846;44.788;20.486;2023-03-31T07:12:01;10.15;;;3.00;;
54945;SDS011;40846;44.788;20.486;2023-03-31T07:14:29;9.57;;;2.50;;
54945;SDS011;40846;44.788;20.486;2023-03-31T07:16:55;9.23;;;3.35;;
54945;SDS011;40846;44.788;20.486;2023-03-31T07:19:21;8.52;;;2.80;;
54945;SDS011;40846;44.788;20.486;2023-03-31T07:21:48;9.93;;;2.75;;
54945;SDS011;40846;44.788;20.486;2023-03-31T07:24:14;8.73;;;2.97;;
54945;SDS011;40846;44.788;20.486;2023-03-31T07:26:40;9.65;;;2.67;;
54945;SDS011;40846;44.788;20.486;2023-03-31T07:29:06;9.00;;;2.55;;
54945;SDS011;40846;44.788;20.486;2023-03-31T07:31:32;12.80;;;2.38;;
54945;SDS011;40846;44.788;20.486;2023-03-31T07:33:59;10.15;;;2.60;;
54945;SDS011;40846;44.788;20.486;2023-03-31T07:36:26;16.88;;;2.90;;
54945;SDS011;40846;44.788;20.486;2023-03-31T07:38:52;8.95;;;2.95;;
54945;SDS011;40846;44.788;20.486;2023-03-31T07:41:18;9.15;;;2.33;;
54945;SDS011;40846;44.788;20.486;2023-03-31T07:43:45;13.55;;;2.33;;
54945;SDS011;40846;44.788;20.486;2023-03-31T07:46:16;10.55;;;2.47;;
54945;SDS011;40846;44.788;20.486;2023-03-31T07:48:43;9.80;;;2.75;;
54945;SDS011;40846;44.788;20.486;2023-03-31T07:51:10;11.52;;;2.90;;
54945;SDS011;40846;44.788;20.486;2023-03-31T07:53:36;15.30;;;3.40;;
54945;SDS011;40846;44.788;20.486;2023-03-31T07:56:02;8.98;;;2.67;;
54945;SDS011;40846;44.788;20.486;2023-03-31T07:58:28;10.40;;;2.55;;
54945;SDS011;40846;44.788;20.486;2023-03-31T08:00:55;17.33;;;2.78;;
54945;SDS011;40846;44.788;20.486;2023-03-31T08:03:20;9.07;;;2.40;;
54945;SDS011;40846;44.788;20.486;2023-03-31T08:05:46;8.52;;;3.65;;
54945;SDS011;40846;44.788;20.486;2023-03-31T08:08:12;7.20;;;3.13;;
54945;SDS011;40846;44.788;20.486;2023-03-31T08:10:38;12.93;;;3.55;;
54945;SDS011;40846;44.788;20.486;2023-03-31T08:13:04;16.45;;;5.20;;
54945;SDS011;40846;44.788;20.486;2023-03-31T08:15:29;15.32;;;4.88;;
54945;SDS011;40846;44.788;20.486;2023-03-31T08:17:56;13.40;;;3.22;;
54945;SDS011;40846;44.788;20.486;2023-03-31T08:20:22;13.52;;;4.05;;
54945;SDS011;40846;44.788;20.486;2023-03-31T08:22:48;16.52;;;5.90;;
54945;SDS011;40846;44.788;20.486;2023-03-31T08:25:13;7.45;;;3.33;;
54945;SDS011;40846;44.788;20.486;2023-03-31T08:27:39;7.90;;;3.20;;
54945;SDS011;40846;44.788;20.486;2023-03-31T08:30:06;6.57;;;2.28;;
54945;SDS011;40846;44.788;20.486;2023-03-31T08:32:33;13.15;;;2.60;;
54945;SDS011;40846;44.788;20.486;2023-03-31T08:35:00;6.55;;;2.25;;
54945;SDS011;40846;44.788;20.486;2023-03-31T08:37:26;6.15;;;2.25;;
54945;SDS011;40846;44.788;20.486;2023-03-31T08:39:55;7.72;;;2.92;;
54945;SDS011;40846;44.788;20.486;2023-03-31T08:47:56;9.68;;;2.88;;
54945;SDS011;40846;44.788;20.486;2023-03-31T08:50:32;12.05;;;2.95;;
54945;SDS011;40846;44.788;20.486;2023-03-31T08:53:09;8.65;;;2.90;;
54945;SDS011;40846;44.788;20.486;2023-03-31T08:55:57;7.32;;;2.67;;
54945;SDS011;40846;44.788;20.486;2023-03-31T09:01:05;5.30;;;2.50;;
54945;SDS011;40846;44.788;20.486;2023-03-31T09:09:24;14.07;;;2.95;;
54945;SDS011;40846;44.788;20.486;2023-03-31T09:12:13;13.25;;;2.55;;
54945;SDS011;40846;44.788;20.486;2023-03-31T09:14:49;6.72;;;3.13;;
54945;SDS011;40846;44.788;20.486;2023-03-31T09:22:24;9.57;;;3.72;;
54945;SDS011;40846;44.788;20.486;2023-03-31T09:25:00;10.60;;;3.88;;
54945;SDS011;40846;44.788;20.486;2023-03-31T09:27:28;6.57;;;4.00;;
54945;SDS011;40846;44.788;20.486;2023-03-31T09:30:30;10.10;;;3.42;;
54945;SDS011;40846;44.788;20.486;2023-03-31T09:32:51;7.15;;;3.50;;
54945;SDS011;40846;44.788;20.486;2023-03-31T09:35:18;14.20;;;3.65;;
54945;SDS011;40846;44.788;20.486;2023-03-31T09:40:33;9.98;;;3.00;;
54945;SDS011;40846;44.788;20.486;2023-03-31T09:43:03;12.50;;;2.45;;
54945;SDS011;40846;44.788;20.486;2023-03-31T09:45:29;6.60;;;2.20;;
54945;SDS011;40846;44.788;20.486;2023-03-31T09:48:00;7.90;;;3.20;;
54945;SDS011;40846;44.788;20.486;2023-03-31T09:50:26;8.70;;;2.72;;
54945;SDS011;40846;44.788;20.486;2023-03-31T09:52:55;9.07;;;2.97;;
54945;SDS011;40846;44.788;20.486;2023-03-31T09:55:55;8.10;;;2.10;;
54945;SDS011;40846;44.788;20.486;2023-03-31T09:58:15;6.20;;;2.03;;
54945;SDS011;40846;44.788;20.486;2023-03-31T10:00:42;4.78;;;2.20;;
54945;SDS011;40846;44.788;20.486;2023-03-31T10:03:11;77.47;;;9.23;;
54945;SDS011;40846;44.788;20.486;2023-03-31T10:05:38;9.60;;;2.33;;
54945;SDS011;40846;44.788;20.486;2023-03-31T10:10:46;10.73;;;2.20;;
54945;SDS011;40846;44.788;20.486;2023-03-31T10:13:14;17.48;;;2.58;;
54945;SDS011;40846;44.788;20.486;2023-03-31T10:15:41;6.90;;;2.78;;
54945;SDS011;40846;44.788;20.486;2023-03-31T10:18:17;9.43;;;2.80;;
54945;SDS011;40846;44.788;20.486;2023-03-31T10:20:50;17.33;;;2.35;;
54945;SDS011;40846;44.788;20.486;2023-03-31T10:23:27;6.35;;;2.40;;
54945;SDS011;40846;44.788;20.486;2023-03-31T10:25:55;7.47;;;2.83;;
54945;SDS011;40846;44.788;20.486;2023-03-31T10:28:21;13.45;;;2.88;;
54945;SDS011;40846;44.788;20.486;2023-03-31T10:30:48;7.38;;;2.15;;
54945;SDS011;40846;44.788;20.486;2023-03-31T10:33:23;4.25;;;2.22;;
54945;SDS011;40846;44.788;20.486;2023-03-31T10:35:53;7.45;;;2.03;;
54945;SDS011;40846;44.788;20.486;2023-03-31T10:38:29;6.10;;;1.77;;
54945;SDS011;40846;44.788;20.486;2023-03-31T10:40:59;11.13;;;2.50;;
54945;SDS011;40846;44.788;20.486;2023-03-31T10:43:29;11.00;;;2.05;;
54945;SDS011;40846;44.788;20.486;2023-03-31T10:46:05;8.82;;;2.30;;
54945;SDS011;40846;44.788;20.486;2023-03-31T10:48:32;8.35;;;2.65;;
54945;SDS011;40846;44.788;20.486;2023-03-31T10:53:52;7.57;;;2.38;;
54945;SDS011;40846;44.788;20.486;2023-03-31T11:04:09;4.93;;;2.72;;
54945;SDS011;40846;44.788;20.486;2023-03-31T11:12:57;8.93;;;2.50;;
54945;SDS011;40846;44.788;20.486;2023-03-31T11:16:17;8.82;;;3.08;;
54945;SDS011;40846;44.788;20.486;2023-03-31T11:24:05;8.45;;;2.47;;
54945;SDS011;40846;44.788;20.486;2023-03-31T11:26:45;10.93;;;2.50;;
54945;SDS011;40846;44.788;20.486;2023-03-31T11:29:29;7.63;;;2.92;;
54945;SDS011;40846;44.788;20.486;2023-03-31T11:32:03;7.38;;;2.10;;
54945;SDS011;40846;44.788;20.486;2023-03-31T11:37:13;8.43;;;2.10;;
54945;SDS011;40846;44.788;20.486;2023-03-31T11:42:43;9.20;;;2.50;;
54945;SDS011;40846;44.788;20.486;2023-03-31T11:45:15;7.63;;;2.40;;
54945;SDS011;40846;44.788;20.486;2023-03-31T11:47:43;7.20;;;2.30;;
54945;SDS011;40846;44.788;20.486;2023-03-31T11:50:15;8.90;;;3.35;;
54945;SDS011;40846;44.788;20.486;2023-03-31T11:52:44;11.85;;;2.80;;
54945;SDS011;40846;44.788;20.486;2023-03-31T11:55:16;14.55;;;2.40;;
54945;SDS011;40846;44.788;20.486;2023-03-31T12:00:15;8.52;;;2.20;;
54945;SDS011;40846;44.788;20.486;2023-03-31T12:11:39;7.95;;;2.28;;
54945;SDS011;40846;44.788;20.486;2023-03-31T12:14:10;7.57;;;2.10;;
54945;SDS011;40846;44.788;20.486;2023-03-31T12:19:21;13.48;;;2.22;;
54945;SDS011;40846;44.788;20.486;2023-03-31T12:28:20;6.95;;;2.47;;
54945;SDS011;40846;44.788;20.486;2023-03-31T12:30:51;6.65;;;2.05;;
54945;SDS011;40846;44.788;20.486;2023-03-31T12:33:19;6.22;;;1.75;;
54945;SDS011;40846;44.788;20.486;2023-03-31T12:46:46;7.93;;;2.38;;
54945;SDS011;40846;44.788;20.486;2023-03-31T12:52:06;10.57;;;1.92;;
54945;SDS011;40846;44.788;20.486;2023-03-31T12:59:30;12.27;;;2.28;;
54945;SDS011;40846;44.788;20.486;2023-03-31T13:04:35;5.55;;;2.03;;
54945;SDS011;40846;44.788;20.486;2023-03-31T13:07:01;7.10;;;2.15;;
54945;SDS011;40846;44.788;20.486;2023-03-31T13:09:43;7.18;;;2.38;;
54945;SDS011;40846;44.788;20.486;2023-03-31T13:12:15;6.32;;;2.40;;
54945;SDS011;40846;44.788;20.486;2023-03-31T13:22:53;12.05;;;2.22;;
54945;SDS011;40846;44.788;20.486;2023-03-31T13:25:42;6.70;;;2.05;;
54945;SDS011;40846;44.788;20.486;2023-03-31T13:30:50;8.13;;;2.25;;
54945;SDS011;40846;44.788;20.486;2023-03-31T13:44:03;7.88;;;2.55;;
54945;SDS011;40846;44.788;20.486;2023-03-31T13:52:12;9.13;;;2.42;;
54945;SDS011;40846;44.788;20.486;2023-03-31T13:54:51;9.63;;;2.50;;
54945;SDS011;40846;44.788;20.486;2023-03-31T13:57:43;9.88;;;2.55;;
54945;SDS011;40846;44.788;20.486;2023-03-31T14:00:36;5.87;;;2.30;;
54945;SDS011;40846;44.788;20.486;2023-03-31T14:05:39;10.13;;;2.10;;
54945;SDS011;40846;44.788;20.486;2023-03-31T14:10:39;6.78;;;2.05;;
54945;SDS011;40846;44.788;20.486;2023-03-31T14:15:37;6.00;;;2.15;;
54945;SDS011;40846;44.788;20.486;2023-03-31T14:18:06;7.22;;;2.33;;
54945;SDS011;40846;44.788;20.486;2023-03-31T14:20:42;4.32;;;1.80;;
54945;SDS011;40846;44.788;20.486;2023-03-31T14:23:23;7.80;;;2.70;;
54945;SDS011;40846;44.788;20.486;2023-03-31T14:26:03;12.82;;;2.45;;
54945;SDS011;40846;44.788;20.486;2023-03-31T14:28:46;5.80;;;2.30;;
54945;SDS011;40846;44.788;20.486;2023-03-31T14:34:24;4.82;;;2.10;;
54945;SDS011;40846;44.788;20.486;2023-03-31T14:37:06;7.32;;;1.70;;
54945;SDS011;40846;44.788;20.486;2023-03-31T14:39:39;11.38;;;3.40;;
54945;SDS011;40846;44.788;20.486;2023-03-31T14:42:11;4.60;;;1.85;;
54945;SDS011;40846;44.788;20.486;2023-03-31T14:44:39;9.60;;;2.72;;
54945;SDS011;40846;44.788;20.486;2023-03-31T14:47:25;7.80;;;2.33;;
54945;SDS011;40846;44.788;20.486;2023-03-31T14:52:56;8.98;;;2.33;;
54945;SDS011;40846;44.788;20.486;2023-03-31T14:55:23;10.32;;;5.50;;
54945;SDS011;40846;44.788;20.486;2023-03-31T14:57:52;7.63;;;2.10;;
54945;SDS011;40846;44.788;20.486;2023-03-31T15:00:26;4.60;;;2.10;;
54945;SDS011;40846;44.788;20.486;2023-03-31T15:02:56;8.77;;;2.45;;
54945;SDS011;40846;44.788;20.486;2023-03-31T15:05:25;7.45;;;2.10;;
54945;SDS011;40846;44.788;20.486;2023-03-31T15:10:47;5.45;;;1.90;;
54945;SDS011;40846;44.788;20.486;2023-03-31T15:13:22;10.07;;;3.28;;
54945;SDS011;40846;44.788;20.486;2023-03-31T15:15:55;6.88;;;1.77;;
54945;SDS011;40846;44.788;20.486;2023-03-31T15:18:24;9.30;;;2.05;;
54945;SDS011;40846;44.788;20.486;2023-03-31T15:20:51;7.07;;;2.55;;
54945;SDS011;40846;44.788;20.486;2023-03-31T15:26:08;5.03;;;2.10;;
54945;SDS011;40846;44.788;20.486;2023-03-31T15:28:52;10.57;;;3.08;;
54945;SDS011;40846;44.788;20.486;2023-03-31T15:31:22;11.65;;;2.30;;
54945;SDS011;40846;44.788;20.486;2023-03-31T15:33:51;10.25;;;4.45;;
54945;SDS011;40846;44.788;20.486;2023-03-31T15:36:17;9.05;;;4.03;;
54945;SDS011;40846;44.788;20.486;2023-03-31T15:38:45;10.85;;;3.30;;
54945;SDS011;40846;44.788;20.486;2023-03-31T15:41:17;13.63;;;5.80;;
54945;SDS011;40846;44.788;20.486;2023-03-31T15:43:46;19.52;;;4.68;;
54945;SDS011;40846;44.788;20.486;2023-03-31T15:46:19;10.68;;;3.67;;
54945;SDS011;40846;44.788;20.486;2023-03-31T15:48:50;4.80;;;2.63;;
54945;SDS011;40846;44.788;20.486;2023-03-31T15:51:23;6.70;;;2.08;;
54945;SDS011;40846;44.788;20.486;2023-03-31T15:54:00;11.43;;;2.67;;
54945;SDS011;40846;44.788;20.486;2023-03-31T16:02:12;10.57;;;3.83;;
54945;SDS011;40846;44.788;20.486;2023-03-31T16:05:00;20.75;;;10.27;;
54945;SDS011;40846;44.788;20.486;2023-03-31T16:07:31;9.38;;;4.50;;
54945;SDS011;40846;44.788;20.486;2023-03-31T16:12:49;9.93;;;3.58;;
54945;SDS011;40846;44.788;20.486;2023-03-31T16:15:13;5.72;;;2.40;;
54945;SDS011;40846;44.788;20.486;2023-03-31T16:20:21;10.07;;;2.97;;
54945;SDS011;40846;44.788;20.486;2023-03-31T16:22:52;11.13;;;2.88;;
54945;SDS011;40846;44.788;20.486;2023-03-31T16:25:21;13.02;;;3.33;;
54945;SDS011;40846;44.788;20.486;2023-03-31T16:27:57;10.60;;;2.72;;
54945;SDS011;40846;44.788;20.486;2023-03-31T16:30:37;6.45;;;2.50;;
54945;SDS011;40846;44.788;20.486;2023-03-31T16:33:08;13.07;;;2.75;;
54945;SDS011;40846;44.788;20.486;2023-03-31T16:35:45;9.45;;;2.95;;
54945;SDS011;40846;44.788;20.486;2023-03-31T16:38:17;8.38;;;3.10;;
54945;SDS011;40846;44.788;20.486;2023-03-31T16:40:46;12.90;;;2.50;;
54945;SDS011;40846;44.788;20.486;2023-03-31T16:45:48;10.35;;;2.63;;
54945;SDS011;40846;44.788;20.486;2023-03-31T16:48:15;12.93;;;3.97;;
54945;SDS011;40846;44.788;20.486;2023-03-31T16:50:46;9.82;;;3.47;;
54945;SDS011;40846;44.788;20.486;2023-03-31T16:53:14;20.02;;;5.03;;
54945;SDS011;40846;44.788;20.486;2023-03-31T16:55:41;13.60;;;4.40;;
54945;SDS011;40846;44.788;20.486;2023-03-31T16:58:07;11.63;;;5.00;;
54945;SDS011;40846;44.788;20.486;2023-03-31T17:00:33;12.98;;;4.07;;
54945;SDS011;40846;44.788;20.486;2023-03-31T17:03:00;14.18;;;4.68;;
54945;SDS011;40846;44.788;20.486;2023-03-31T17:05:26;14.55;;;5.82;;
54945;SDS011;40846;44.788;20.486;2023-03-31T17:07:53;11.60;;;4.45;;
54945;SDS011;40846;44.788;20.486;2023-03-31T17:10:19;13.45;;;5.05;;
54945;SDS011;40846;44.788;20.486;2023-03-31T17:12:46;16.45;;;5.15;;
54945;SDS011;40846;44.788;20.486;2023-03-31T17:15:11;14.45;;;5.30;;
54945;SDS011;40846;44.788;20.486;2023-03-31T17:17:38;10.93;;;4.45;;
54945;SDS011;40846;44.788;20.486;2023-03-31T17:20:04;13.07;;;5.35;;
54945;SDS011;40846;44.788;20.486;2023-03-31T17:22:32;12.15;;;5.88;;
54945;SDS011;40846;44.788;20.486;2023-03-31T17:24:58;20.67;;;5.32;;
54945;SDS011;40846;44.788;20.486;2023-03-31T17:27:24;12.27;;;5.82;;
54945;SDS011;40846;44.788;20.486;2023-03-31T17:29:51;15.95;;;5.85;;
54945;SDS011;40846;44.788;20.486;2023-03-31T17:32:17;14.18;;;5.47;;
54945;SDS011;40846;44.788;20.486;2023-03-31T17:34:44;12.45;;;5.95;;
54945;SDS011;40846;44.788;20.486;2023-03-31T17:37:13;18.80;;;6.55;;
54945;SDS011;40846;44.788;20.486;2023-03-31T17:39:39;17.88;;;7.00;;
54945;SDS011;40846;44.788;20.486;2023-03-31T17:42:05;16.08;;;8.38;;
54945;SDS011;40846;44.788;20.486;2023-03-31T17:44:31;22.02;;;10.10;;
54945;SDS011;40846;44.788;20.486;2023-03-31T17:46:57;24.52;;;10.30;;
54945;SDS011;40846;44.788;20.486;2023-03-31T17:49:23;26.92;;;10.93;;
54945;SDS011;40846;44.788;20.486;2023-03-31T17:51:49;24.60;;;11.80;;
54945;SDS011;40846;44.788;20.486;2023-03-31T17:54:15;39.17;;;15.32;;
54945;SDS011;40846;44.788;20.486;2023-03-31T17:56:41;44.33;;;17.05;;
54945;SDS011;40846;44.788;20.486;2023-03-31T17:59:09;37.03;;;16.83;;
54945;SDS011;40846;44.788;20.486;2023-03-31T18:01:35;43.45;;;15.35;;
54945;SDS011;40846;44.788;20.486;2023-03-31T18:04:01;36.83;;;15.48;;
54945;SDS011;40846;44.788;20.486;2023-03-31T18:06:27;41.88;;;14.65;;
54945;SDS011;40846;44.788;20.486;2023-03-31T18:08:54;29.92;;;13.68;;
54945;SDS011;40846;44.788;20.486;2023-03-31T18:11:21;32.20;;;13.32;;
54945;SDS011;40846;44.788;20.486;2023-03-31T18:13:47;34.95;;;14.43;;